< < Back
Terminal Aerodrome Forecast


Current Version              Previous Versions:   1  2  3  4  5  6  7  8  9  

Terminal Aerodrome Forecast

890
FTUS42 KCAE 041100
TAFAGS
TAF
KAGS 041128Z 0412/0512 VRB03KT 1/4SM -DZ FG VV002 WS020/21040KT
     FM041500 23010KT 5SM BR BKN012
     FM041600 24017G25KT P6SM SCT025 BKN250
     FM042300 21007KT P6SM OVC100
     FM050500 23007KT 4SM BR OVC003=



Latest METAR

400
SAUS70 KWBC 041200 RRE
MTRAGS
METAR KAGS 041153Z AUTO 00000KT 1/4SM FG VV002 11/11 A3007 RMK AO2
SLP183 T01060106 10106 20100 50002 RVRNO


USA.gov is the U.S. government's official web portal to all federal, state and local government web resources and services.